sensor_id;sensor_type;location;lat;lon;timestamp;P1;durP1;ratioP1;P2;durP2;ratioP2
10542;SDS011;5320;50.046;10.314;2022-09-09T00:00:40;4.73;;;1.50;;
10542;SDS011;5320;50.046;10.314;2022-09-09T00:03:19;1.77;;;1.20;;
10542;SDS011;5320;50.046;10.314;2022-09-09T00:05:54;1.87;;;1.50;;
10542;SDS011;5320;50.046;10.314;2022-09-09T00:12:09;2.13;;;1.40;;
10542;SDS011;5320;50.046;10.314;2022-09-09T00:17:16;2.13;;;1.43;;
10542;SDS011;5320;50.046;10.314;2022-09-09T00:22:24;2.10;;;1.43;;
10542;SDS011;5320;50.046;10.314;2022-09-09T00:24:57;1.53;;;1.30;;
10542;SDS011;5320;50.046;10.314;2022-09-09T00:27:38;3.73;;;1.60;;
10542;SDS011;5320;50.046;10.314;2022-09-09T00:30:19;3.33;;;1.60;;
10542;SDS011;5320;50.046;10.314;2022-09-09T00:32:55;2.57;;;1.30;;
10542;SDS011;5320;50.046;10.314;2022-09-09T00:35:27;2.00;;;1.30;;
10542;SDS011;5320;50.046;10.314;2022-09-09T00:38:14;4.07;;;1.30;;
10542;SDS011;5320;50.046;10.314;2022-09-09T00:40:49;3.60;;;1.47;;
10542;SDS011;5320;50.046;10.314;2022-09-09T00:43:24;2.27;;;1.30;;
10542;SDS011;5320;50.046;10.314;2022-09-09T00:48:56;2.53;;;1.50;;
10542;SDS011;5320;50.046;10.314;2022-09-09T00:51:55;3.03;;;1.43;;
10542;SDS011;5320;50.046;10.314;2022-09-09T01:08:12;2.63;;;1.27;;
10542;SDS011;5320;50.046;10.314;2022-09-09T01:10:53;2.63;;;1.63;;
10542;SDS011;5320;50.046;10.314;2022-09-09T01:13:27;1.70;;;1.30;;
10542;SDS011;5320;50.046;10.314;2022-09-09T01:15:56;2.57;;;1.50;;
10542;SDS011;5320;50.046;10.314;2022-09-09T01:18:32;3.00;;;1.63;;
10542;SDS011;5320;50.046;10.314;2022-09-09T01:21:13;2.77;;;1.70;;
10542;SDS011;5320;50.046;10.314;2022-09-09T01:26:45;4.83;;;1.73;;
10542;SDS011;5320;50.046;10.314;2022-09-09T01:29:13;2.30;;;1.60;;
10542;SDS011;5320;50.046;10.314;2022-09-09T01:34:52;2.63;;;1.60;;
10542;SDS011;5320;50.046;10.314;2022-09-09T01:37:17;2.57;;;1.53;;
10542;SDS011;5320;50.046;10.314;2022-09-09T01:39:43;3.47;;;1.60;;
10542;SDS011;5320;50.046;10.314;2022-09-09T01:42:11;3.47;;;1.83;;
10542;SDS011;5320;50.046;10.314;2022-09-09T01:44:39;3.17;;;1.50;;
10542;SDS011;5320;50.046;10.314;2022-09-09T01:47:05;3.43;;;1.60;;
10542;SDS011;5320;50.046;10.314;2022-09-09T01:49:32;2.93;;;1.80;;
10542;SDS011;5320;50.046;10.314;2022-09-09T01:51:58;3.67;;;1.80;;
10542;SDS011;5320;50.046;10.314;2022-09-09T01:54:26;1.60;;;1.50;;
10542;SDS011;5320;50.046;10.314;2022-09-09T01:57:00;2.80;;;1.70;;
10542;SDS011;5320;50.046;10.314;2022-09-09T02:04:48;1.70;;;1.60;;
10542;SDS011;5320;50.046;10.314;2022-09-09T02:07:27;2.40;;;1.70;;
10542;SDS011;5320;50.046;10.314;2022-09-09T02:10:10;2.70;;;1.70;;
10542;SDS011;5320;50.046;10.314;2022-09-09T02:12:42;2.50;;;1.67;;
10542;SDS011;5320;50.046;10.314;2022-09-09T02:15:47;3.73;;;1.40;;
10542;SDS011;5320;50.046;10.314;2022-09-09T02:18:10;1.60;;;1.50;;
10542;SDS011;5320;50.046;10.314;2022-09-09T02:20:38;2.80;;;1.50;;
10542;SDS011;5320;50.046;10.314;2022-09-09T02:23:05;2.30;;;1.70;;
10542;SDS011;5320;50.046;10.314;2022-09-09T02:25:33;3.27;;;1.80;;
10542;SDS011;5320;50.046;10.314;2022-09-09T02:28:02;1.77;;;1.50;;
10542;SDS011;5320;50.046;10.314;2022-09-09T02:30:32;3.53;;;1.70;;
10542;SDS011;5320;50.046;10.314;2022-09-09T02:33:00;1.80;;;1.63;;
10542;SDS011;5320;50.046;10.314;2022-09-09T02:35:29;2.67;;;1.77;;
10542;SDS011;5320;50.046;10.314;2022-09-09T02:37:58;3.90;;;1.70;;
10542;SDS011;5320;50.046;10.314;2022-09-09T02:40:28;4.63;;;1.70;;
10542;SDS011;5320;50.046;10.314;2022-09-09T02:42:54;4.43;;;1.97;;
10542;SDS011;5320;50.046;10.314;2022-09-09T02:45:22;2.77;;;1.70;;
10542;SDS011;5320;50.046;10.314;2022-09-09T02:48:11;4.00;;;1.60;;
10542;SDS011;5320;50.046;10.314;2022-09-09T02:53:48;2.83;;;1.80;;
10542;SDS011;5320;50.046;10.314;2022-09-09T02:56:23;2.20;;;1.60;;
10542;SDS011;5320;50.046;10.314;2022-09-09T02:58:53;2.77;;;1.60;;
10542;SDS011;5320;50.046;10.314;2022-09-09T03:01:19;2.97;;;1.60;;
10542;SDS011;5320;50.046;10.314;2022-09-09T03:03:45;4.13;;;1.67;;
10542;SDS011;5320;50.046;10.314;2022-09-09T03:06:11;1.73;;;1.50;;
10542;SDS011;5320;50.046;10.314;2022-09-09T03:08:37;4.53;;;1.90;;
10542;SDS011;5320;50.046;10.314;2022-09-09T03:11:03;2.87;;;1.60;;
10542;SDS011;5320;50.046;10.314;2022-09-09T03:13:29;2.63;;;1.70;;
10542;SDS011;5320;50.046;10.314;2022-09-09T03:15:55;2.73;;;1.33;;
10542;SDS011;5320;50.046;10.314;2022-09-09T03:18:21;2.10;;;1.80;;
10542;SDS011;5320;50.046;10.314;2022-09-09T03:20:46;3.50;;;1.80;;
10542;SDS011;5320;50.046;10.314;2022-09-09T03:23:16;5.03;;;1.77;;
10542;SDS011;5320;50.046;10.314;2022-09-09T03:25:48;2.33;;;1.70;;
10542;SDS011;5320;50.046;10.314;2022-09-09T03:28:15;2.47;;;1.50;;
10542;SDS011;5320;50.046;10.314;2022-09-09T03:30:40;2.87;;;1.90;;
10542;SDS011;5320;50.046;10.314;2022-09-09T03:33:06;6.00;;;1.70;;
10542;SDS011;5320;50.046;10.314;2022-09-09T03:35:32;2.97;;;1.73;;
10542;SDS011;5320;50.046;10.314;2022-09-09T03:37:57;3.33;;;1.67;;
10542;SDS011;5320;50.046;10.314;2022-09-09T03:40:23;2.77;;;1.40;;
10542;SDS011;5320;50.046;10.314;2022-09-09T03:42:49;3.20;;;1.90;;
10542;SDS011;5320;50.046;10.314;2022-09-09T03:45:15;2.10;;;1.60;;
10542;SDS011;5320;50.046;10.314;2022-09-09T03:47:42;1.60;;;1.50;;
10542;SDS011;5320;50.046;10.314;2022-09-09T03:50:08;2.40;;;1.50;;
10542;SDS011;5320;50.046;10.314;2022-09-09T03:52:36;3.13;;;1.60;;
10542;SDS011;5320;50.046;10.314;2022-09-09T03:55:03;4.30;;;1.63;;
10542;SDS011;5320;50.046;10.314;2022-09-09T03:57:29;2.23;;;1.50;;
10542;SDS011;5320;50.046;10.314;2022-09-09T03:59:55;3.57;;;1.60;;
10542;SDS011;5320;50.046;10.314;2022-09-09T04:02:21;2.37;;;1.90;;
10542;SDS011;5320;50.046;10.314;2022-09-09T04:04:47;2.60;;;1.57;;
10542;SDS011;5320;50.046;10.314;2022-09-09T04:07:13;4.37;;;1.90;;
10542;SDS011;5320;50.046;10.314;2022-09-09T04:09:39;2.60;;;1.77;;
10542;SDS011;5320;50.046;10.314;2022-09-09T04:12:04;3.77;;;1.90;;
10542;SDS011;5320;50.046;10.314;2022-09-09T04:14:32;3.23;;;1.73;;
10542;SDS011;5320;50.046;10.314;2022-09-09T04:16:58;4.87;;;1.80;;
10542;SDS011;5320;50.046;10.314;2022-09-09T04:19:25;3.40;;;1.90;;
10542;SDS011;5320;50.046;10.314;2022-09-09T04:21:51;2.60;;;1.90;;
10542;SDS011;5320;50.046;10.314;2022-09-09T04:24:17;3.93;;;1.90;;
10542;SDS011;5320;50.046;10.314;2022-09-09T04:26:43;4.10;;;2.07;;
10542;SDS011;5320;50.046;10.314;2022-09-09T04:29:08;3.10;;;1.70;;
10542;SDS011;5320;50.046;10.314;2022-09-09T04:31:34;2.63;;;1.97;;
10542;SDS011;5320;50.046;10.314;2022-09-09T04:34:00;4.03;;;2.07;;
10542;SDS011;5320;50.046;10.314;2022-09-09T04:36:31;4.97;;;2.03;;
10542;SDS011;5320;50.046;10.314;2022-09-09T04:38:57;3.17;;;2.00;;
10542;SDS011;5320;50.046;10.314;2022-09-09T04:41:23;3.70;;;1.90;;
10542;SDS011;5320;50.046;10.314;2022-09-09T04:43:49;2.47;;;1.80;;
10542;SDS011;5320;50.046;10.314;2022-09-09T04:46:15;2.63;;;1.60;;
10542;SDS011;5320;50.046;10.314;2022-09-09T04:48:44;2.87;;;1.80;;
10542;SDS011;5320;50.046;10.314;2022-09-09T04:51:11;2.97;;;1.97;;
10542;SDS011;5320;50.046;10.314;2022-09-09T04:53:38;4.80;;;1.87;;
10542;SDS011;5320;50.046;10.314;2022-09-09T04:56:09;4.17;;;1.80;;
10542;SDS011;5320;50.046;10.314;2022-09-09T04:58:37;4.33;;;1.90;;
10542;SDS011;5320;50.046;10.314;2022-09-09T05:01:07;2.90;;;1.80;;
10542;SDS011;5320;50.046;10.314;2022-09-09T05:03:34;3.50;;;1.87;;
10542;SDS011;5320;50.046;10.314;2022-09-09T05:06:07;3.23;;;1.70;;
10542;SDS011;5320;50.046;10.314;2022-09-09T05:08:36;2.77;;;1.60;;
10542;SDS011;5320;50.046;10.314;2022-09-09T05:11:02;3.43;;;2.20;;
10542;SDS011;5320;50.046;10.314;2022-09-09T05:13:29;1.90;;;1.77;;
10542;SDS011;5320;50.046;10.314;2022-09-09T05:15:56;3.80;;;1.87;;
10542;SDS011;5320;50.046;10.314;2022-09-09T05:18:22;1.97;;;1.70;;
10542;SDS011;5320;50.046;10.314;2022-09-09T05:20:48;6.20;;;2.10;;
10542;SDS011;5320;50.046;10.314;2022-09-09T05:23:16;3.67;;;1.70;;
10542;SDS011;5320;50.046;10.314;2022-09-09T05:25:42;3.57;;;2.10;;
10542;SDS011;5320;50.046;10.314;2022-09-09T05:28:08;3.20;;;1.87;;
10542;SDS011;5320;50.046;10.314;2022-09-09T05:30:35;3.77;;;2.10;;
10542;SDS011;5320;50.046;10.314;2022-09-09T05:33:00;2.63;;;1.83;;
10542;SDS011;5320;50.046;10.314;2022-09-09T05:35:26;2.27;;;1.80;;
10542;SDS011;5320;50.046;10.314;2022-09-09T05:37:52;3.87;;;2.00;;
10542;SDS011;5320;50.046;10.314;2022-09-09T05:40:18;2.43;;;1.73;;
10542;SDS011;5320;50.046;10.314;2022-09-09T05:42:43;3.40;;;1.83;;
10542;SDS011;5320;50.046;10.314;2022-09-09T05:45:09;3.67;;;2.43;;
10542;SDS011;5320;50.046;10.314;2022-09-09T05:47:35;5.53;;;2.97;;
10542;SDS011;5320;50.046;10.314;2022-09-09T05:50:02;4.20;;;1.70;;
10542;SDS011;5320;50.046;10.314;2022-09-09T05:52:29;4.30;;;1.77;;
10542;SDS011;5320;50.046;10.314;2022-09-09T05:54:54;3.17;;;1.90;;
10542;SDS011;5320;50.046;10.314;2022-09-09T05:57:22;3.10;;;2.00;;
10542;SDS011;5320;50.046;10.314;2022-09-09T05:59:47;2.73;;;2.00;;
10542;SDS011;5320;50.046;10.314;2022-09-09T06:02:14;3.30;;;2.10;;
10542;SDS011;5320;50.046;10.314;2022-09-09T06:04:40;2.77;;;1.70;;
10542;SDS011;5320;50.046;10.314;2022-09-09T06:07:06;4.13;;;2.10;;
10542;SDS011;5320;50.046;10.314;2022-09-09T06:09:32;3.47;;;2.17;;
10542;SDS011;5320;50.046;10.314;2022-09-09T06:11:58;2.77;;;1.70;;
10542;SDS011;5320;50.046;10.314;2022-09-09T06:14:24;2.93;;;1.70;;
10542;SDS011;5320;50.046;10.314;2022-09-09T06:16:50;3.47;;;2.10;;
10542;SDS011;5320;50.046;10.314;2022-09-09T06:19:16;2.63;;;1.70;;
10542;SDS011;5320;50.046;10.314;2022-09-09T06:21:42;3.30;;;1.90;;
10542;SDS011;5320;50.046;10.314;2022-09-09T06:24:09;4.63;;;2.00;;
10542;SDS011;5320;50.046;10.314;2022-09-09T06:26:36;2.67;;;1.80;;
10542;SDS011;5320;50.046;10.314;2022-09-09T06:29:05;2.70;;;1.70;;
10542;SDS011;5320;50.046;10.314;2022-09-09T06:31:32;2.93;;;1.80;;
10542;SDS011;5320;50.046;10.314;2022-09-09T06:33:59;3.73;;;1.77;;
10542;SDS011;5320;50.046;10.314;2022-09-09T06:36:30;1.90;;;1.40;;
10542;SDS011;5320;50.046;10.314;2022-09-09T06:38:57;1.97;;;1.50;;
10542;SDS011;5320;50.046;10.314;2022-09-09T06:41:25;2.00;;;1.43;;
10542;SDS011;5320;50.046;10.314;2022-09-09T06:43:54;3.67;;;1.60;;
10542;SDS011;5320;50.046;10.314;2022-09-09T06:46:24;3.10;;;1.30;;
10542;SDS011;5320;50.046;10.314;2022-09-09T06:48:53;1.80;;;1.33;;
10542;SDS011;5320;50.046;10.314;2022-09-09T06:51:23;4.27;;;1.37;;
10542;SDS011;5320;50.046;10.314;2022-09-09T06:53:52;2.77;;;1.50;;
10542;SDS011;5320;50.046;10.314;2022-09-09T06:56:20;1.37;;;1.27;;
10542;SDS011;5320;50.046;10.314;2022-09-09T06:58:55;3.13;;;1.23;;
10542;SDS011;5320;50.046;10.314;2022-09-09T07:01:24;3.13;;;1.27;;
10542;SDS011;5320;50.046;10.314;2022-09-09T07:03:54;2.20;;;1.30;;
10542;SDS011;5320;50.046;10.314;2022-09-09T07:06:21;2.60;;;1.27;;
10542;SDS011;5320;50.046;10.314;2022-09-09T07:08:55;2.40;;;1.13;;
10542;SDS011;5320;50.046;10.314;2022-09-09T07:11:25;2.50;;;1.10;;
10542;SDS011;5320;50.046;10.314;2022-09-09T07:13:56;2.13;;;1.00;;
10542;SDS011;5320;50.046;10.314;2022-09-09T07:16:23;2.07;;;1.00;;
10542;SDS011;5320;50.046;10.314;2022-09-09T07:18:49;2.30;;;1.33;;
10542;SDS011;5320;50.046;10.314;2022-09-09T07:21:16;1.37;;;1.20;;
10542;SDS011;5320;50.046;10.314;2022-09-09T07:23:42;4.33;;;1.20;;
10542;SDS011;5320;50.046;10.314;2022-09-09T07:26:27;1.17;;;1.10;;
10542;SDS011;5320;50.046;10.314;2022-09-09T07:28:54;2.73;;;1.00;;
10542;SDS011;5320;50.046;10.314;2022-09-09T07:31:31;1.70;;;0.90;;
10542;SDS011;5320;50.046;10.314;2022-09-09T07:33:58;1.50;;;1.03;;
10542;SDS011;5320;50.046;10.314;2022-09-09T07:36:25;2.20;;;1.17;;
10542;SDS011;5320;50.046;10.314;2022-09-09T07:38:52;1.43;;;1.03;;
10542;SDS011;5320;50.046;10.314;2022-09-09T07:41:21;1.70;;;1.00;;
10542;SDS011;5320;50.046;10.314;2022-09-09T07:43:57;2.03;;;1.20;;
10542;SDS011;5320;50.046;10.314;2022-09-09T07:46:24;2.27;;;1.10;;
10542;SDS011;5320;50.046;10.314;2022-09-09T07:48:52;3.17;;;1.17;;
10542;SDS011;5320;50.046;10.314;2022-09-09T07:51:21;3.83;;;1.40;;
10542;SDS011;5320;50.046;10.314;2022-09-09T07:53:48;1.67;;;1.20;;
10542;SDS011;5320;50.046;10.314;2022-09-09T07:56:17;1.70;;;1.30;;
10542;SDS011;5320;50.046;10.314;2022-09-09T07:58:47;1.50;;;0.90;;
10542;SDS011;5320;50.046;10.314;2022-09-09T08:01:14;1.88;;;1.10;;
10542;SDS011;5320;50.046;10.314;2022-09-09T08:03:43;1.93;;;1.20;;
10542;SDS011;5320;50.046;10.314;2022-09-09T08:06:17;4.97;;;1.20;;
10542;SDS011;5320;50.046;10.314;2022-09-09T08:08:43;2.50;;;1.10;;
10542;SDS011;5320;50.046;10.314;2022-09-09T08:11:14;2.10;;;1.30;;
10542;SDS011;5320;50.046;10.314;2022-09-09T08:13:41;2.28;;;1.30;;
10542;SDS011;5320;50.046;10.314;2022-09-09T08:18:38;2.03;;;1.00;;
10542;SDS011;5320;50.046;10.314;2022-09-09T08:21:11;3.35;;;1.13;;
10542;SDS011;5320;50.046;10.314;2022-09-09T08:23:39;2.22;;;1.02;;
10542;SDS011;5320;50.046;10.314;2022-09-09T08:26:16;2.05;;;1.10;;
10542;SDS011;5320;50.046;10.314;2022-09-09T08:28:47;3.20;;;1.30;;
10542;SDS011;5320;50.046;10.314;2022-09-09T08:31:16;1.42;;;1.20;;
10542;SDS011;5320;50.046;10.314;2022-09-09T08:33:46;3.15;;;1.30;;
10542;SDS011;5320;50.046;10.314;2022-09-09T08:36:14;1.90;;;1.20;;
10542;SDS011;5320;50.046;10.314;2022-09-09T08:38:43;2.58;;;1.17;;
10542;SDS011;5320;50.046;10.314;2022-09-09T08:52:23;2.88;;;1.05;;
10542;SDS011;5320;50.046;10.314;2022-09-09T08:55:17;3.35;;;1.20;;
10542;SDS011;5320;50.046;10.314;2022-09-09T08:58:08;2.67;;;1.33;;
10542;SDS011;5320;50.046;10.314;2022-09-09T09:11:59;3.08;;;1.30;;
10542;SDS011;5320;50.046;10.314;2022-09-09T09:14:31;4.32;;;1.40;;
10542;SDS011;5320;50.046;10.314;2022-09-09T09:17:00;2.88;;;1.10;;
10542;SDS011;5320;50.046;10.314;2022-09-09T09:19:28;4.28;;;1.58;;
10542;SDS011;5320;50.046;10.314;2022-09-09T09:24:53;2.38;;;1.17;;
10542;SDS011;5320;50.046;10.314;2022-09-09T09:30:21;2.85;;;1.30;;
10542;SDS011;5320;50.046;10.314;2022-09-09T09:35:28;3.00;;;1.40;;
10542;SDS011;5320;50.046;10.314;2022-09-09T09:37:54;3.00;;;1.42;;
10542;SDS011;5320;50.046;10.314;2022-09-09T09:40:20;2.20;;;1.27;;
10542;SDS011;5320;50.046;10.314;2022-09-09T09:42:57;4.93;;;1.50;;
10542;SDS011;5320;50.046;10.314;2022-09-09T09:48:04;4.15;;;1.52;;
10542;SDS011;5320;50.046;10.314;2022-09-09T09:50:34;4.05;;;1.40;;
10542;SDS011;5320;50.046;10.314;2022-09-09T09:53:04;6.47;;;1.30;;
10542;SDS011;5320;50.046;10.314;2022-09-09T09:55:32;3.45;;;1.48;;
10542;SDS011;5320;50.046;10.314;2022-09-09T09:58:06;3.83;;;1.20;;
10542;SDS011;5320;50.046;10.314;2022-09-09T10:00:47;3.78;;;1.60;;
10542;SDS011;5320;50.046;10.314;2022-09-09T10:03:22;1.85;;;1.27;;
10542;SDS011;5320;50.046;10.314;2022-09-09T10:06:02;4.40;;;1.70;;
10542;SDS011;5320;50.046;10.314;2022-09-09T10:08:32;3.78;;;1.52;;
10542;SDS011;5320;50.046;10.314;2022-09-09T10:14:24;3.28;;;1.52;;
10542;SDS011;5320;50.046;10.314;2022-09-09T10:17:08;2.75;;;1.30;;
10542;SDS011;5320;50.046;10.314;2022-09-09T10:19:35;5.10;;;1.80;;
10542;SDS011;5320;50.046;10.314;2022-09-09T10:30:40;2.50;;;1.30;;
10542;SDS011;5320;50.046;10.314;2022-09-09T10:43:53;4.22;;;1.30;;
10542;SDS011;5320;50.046;10.314;2022-09-09T10:46:36;3.85;;;1.30;;
10542;SDS011;5320;50.046;10.314;2022-09-09T10:51:54;3.08;;;1.35;;
10542;SDS011;5320;50.046;10.314;2022-09-09T10:59:58;3.78;;;1.30;;
10542;SDS011;5320;50.046;10.314;2022-09-09T11:02:39;2.42;;;1.42;;
10542;SDS011;5320;50.046;10.314;2022-09-09T11:05:20;2.40;;;1.23;;
10542;SDS011;5320;50.046;10.314;2022-09-09T11:08:02;3.97;;;1.27;;
10542;SDS011;5320;50.046;10.314;2022-09-09T11:10:42;3.67;;;1.50;;
10542;SDS011;5320;50.046;10.314;2022-09-09T11:19:19;4.07;;;1.65;;
10542;SDS011;5320;50.046;10.314;2022-09-09T11:21:49;1.73;;;1.05;;
10542;SDS011;5320;50.046;10.314;2022-09-09T11:24:21;4.15;;;1.50;;
10542;SDS011;5320;50.046;10.314;2022-09-09T11:26:55;4.88;;;1.40;;
10542;SDS011;5320;50.046;10.314;2022-09-09T11:29:37;4.80;;;1.70;;
10542;SDS011;5320;50.046;10.314;2022-09-09T11:32:22;4.45;;;1.42;;
10542;SDS011;5320;50.046;10.314;2022-09-09T11:35:14;3.20;;;0.90;;
10542;SDS011;5320;50.046;10.314;2022-09-09T11:40:38;2.27;;;0.70;;
10542;SDS011;5320;50.046;10.314;2022-09-09T11:43:09;1.20;;;0.60;;
10542;SDS011;5320;50.046;10.314;2022-09-09T11:45:41;1.27;;;0.50;;
10542;SDS011;5320;50.046;10.314;2022-09-09T11:48:26;1.63;;;0.50;;
10542;SDS011;5320;50.046;10.314;2022-09-09T11:51:07;1.50;;;0.67;;
10542;SDS011;5320;50.046;10.314;2022-09-09T11:53:47;2.10;;;0.50;;
10542;SDS011;5320;50.046;10.314;2022-09-09T11:56:53;1.60;;;0.67;;
10542;SDS011;5320;50.046;10.314;2022-09-09T11:59:29;0.40;;;0.30;;
10542;SDS011;5320;50.046;10.314;2022-09-09T12:02:18;1.67;;;0.70;;
10542;SDS011;5320;50.046;10.314;2022-09-09T12:07:50;0.50;;;0.40;;
10542;SDS011;5320;50.046;10.314;2022-09-09T12:10:22;1.45;;;0.50;;
10542;SDS011;5320;50.046;10.314;2022-09-09T12:12:53;0.50;;;0.22;;
10542;SDS011;5320;50.046;10.314;2022-09-09T12:15:21;1.33;;;0.75;;
10542;SDS011;5320;50.046;10.314;2022-09-09T12:17:48;0.77;;;0.57;;
10542;SDS011;5320;50.046;10.314;2022-09-09T12:25:54;1.13;;;0.73;;
10542;SDS011;5320;50.046;10.314;2022-09-09T12:33:51;1.33;;;0.55;;
10542;SDS011;5320;50.046;10.314;2022-09-09T12:36:28;1.13;;;0.68;;
10542;SDS011;5320;50.046;10.314;2022-09-09T12:38:57;1.05;;;0.80;;
10542;SDS011;5320;50.046;10.314;2022-09-09T12:41:35;1.02;;;0.55;;
10542;SDS011;5320;50.046;10.314;2022-09-09T12:44:10;1.20;;;0.93;;
10542;SDS011;5320;50.046;10.314;2022-09-09T12:46:37;1.95;;;0.77;;
10542;SDS011;5320;50.046;10.314;2022-09-09T12:51:54;2.45;;;0.93;;
10542;SDS011;5320;50.046;10.314;2022-09-09T12:54:22;1.85;;;1.20;;
10542;SDS011;5320;50.046;10.314;2022-09-09T12:56:48;1.67;;;0.88;;
10542;SDS011;5320;50.046;10.314;2022-09-09T12:59:21;1.02;;;0.73;;
10542;SDS011;5320;50.046;10.314;2022-09-09T13:01:59;2.50;;;0.90;;
10542;SDS011;5320;50.046;10.314;2022-09-09T13:04:25;1.88;;;0.75;;
10542;SDS011;5320;50.046;10.314;2022-09-09T13:06:51;0.90;;;0.70;;
10542;SDS011;5320;50.046;10.314;2022-09-09T13:09:20;1.58;;;0.90;;
10542;SDS011;5320;50.046;10.314;2022-09-09T13:11:50;1.77;;;1.15;;
10542;SDS011;5320;50.046;10.314;2022-09-09T13:14:34;1.65;;;0.93;;
10542;SDS011;5320;50.046;10.314;2022-09-09T13:17:03;2.30;;;0.90;;
10542;SDS011;5320;50.046;10.314;2022-09-09T13:19:32;1.65;;;0.90;;
10542;SDS011;5320;50.046;10.314;2022-09-09T13:22:13;2.47;;;1.10;;
10542;SDS011;5320;50.046;10.314;2022-09-09T13:24:45;2.00;;;1.00;;
10542;SDS011;5320;50.046;10.314;2022-09-09T13:27:28;3.60;;;1.13;;
10542;SDS011;5320;50.046;10.314;2022-09-09T13:29:54;1.90;;;1.15;;
10542;SDS011;5320;50.046;10.314;2022-09-09T13:32:22;2.45;;;1.30;;
10542;SDS011;5320;50.046;10.314;2022-09-09T13:34:53;2.17;;;1.10;;
10542;SDS011;5320;50.046;10.314;2022-09-09T13:37:31;1.92;;;0.90;;
10542;SDS011;5320;50.046;10.314;2022-09-09T13:40:16;1.83;;;1.05;;
10542;SDS011;5320;50.046;10.314;2022-09-09T13:42:44;1.60;;;1.10;;
10542;SDS011;5320;50.046;10.314;2022-09-09T13:45:21;2.10;;;1.08;;
10542;SDS011;5320;50.046;10.314;2022-09-09T13:47:48;1.23;;;0.90;;
10542;SDS011;5320;50.046;10.314;2022-09-09T13:52:54;2.92;;;1.10;;
10542;SDS011;5320;50.046;10.314;2022-09-09T13:55:24;3.38;;;0.90;;
10542;SDS011;5320;50.046;10.314;2022-09-09T13:58:01;2.72;;;1.15;;
10542;SDS011;5320;50.046;10.314;2022-09-09T14:00:29;1.73;;;1.00;;
10542;SDS011;5320;50.046;10.314;2022-09-09T14:02:56;1.10;;;1.00;;
10542;SDS011;5320;50.046;10.314;2022-09-09T14:05:26;1.55;;;1.00;;
10542;SDS011;5320;50.046;10.314;2022-09-09T14:07:52;2.55;;;1.20;;
10542;SDS011;5320;50.046;10.314;2022-09-09T14:10:18;1.75;;;1.13;;
10542;SDS011;5320;50.046;10.314;2022-09-09T14:12:44;2.35;;;1.25;;
10542;SDS011;5320;50.046;10.314;2022-09-09T14:15:11;2.50;;;1.27;;
10542;SDS011;5320;50.046;10.314;2022-09-09T14:17:37;1.55;;;0.90;;
10542;SDS011;5320;50.046;10.314;2022-09-09T14:20:04;1.45;;;0.90;;
10542;SDS011;5320;50.046;10.314;2022-09-09T14:22:35;3.03;;;1.10;;
10542;SDS011;5320;50.046;10.314;2022-09-09T14:25:02;1.67;;;1.00;;
10542;SDS011;5320;50.046;10.314;2022-09-09T14:27:28;2.35;;;1.10;;
10542;SDS011;5320;50.046;10.314;2022-09-09T14:29:55;1.67;;;1.10;;
10542;SDS011;5320;50.046;10.314;2022-09-09T14:32:21;1.30;;;1.10;;
10542;SDS011;5320;50.046;10.314;2022-09-09T14:34:47;2.15;;;1.17;;
10542;SDS011;5320;50.046;10.314;2022-09-09T14:37:16;1.70;;;1.10;;
10542;SDS011;5320;50.046;10.314;2022-09-09T14:39:43;2.30;;;1.10;;
10542;SDS011;5320;50.046;10.314;2022-09-09T14:42:09;2.15;;;1.00;;
10542;SDS011;5320;50.046;10.314;2022-09-09T14:44:36;2.80;;;1.17;;
10542;SDS011;5320;50.046;10.314;2022-09-09T14:47:04;1.65;;;1.08;;
10542;SDS011;5320;50.046;10.314;2022-09-09T14:49:30;1.65;;;1.30;;
10542;SDS011;5320;50.046;10.314;2022-09-09T14:51:56;1.73;;;0.98;;
10542;SDS011;5320;50.046;10.314;2022-09-09T14:54:22;1.52;;;1.02;;
10542;SDS011;5320;50.046;10.314;2022-09-09T14:56:48;1.85;;;0.85;;
10542;SDS011;5320;50.046;10.314;2022-09-09T14:59:14;1.67;;;0.90;;
10542;SDS011;5320;50.046;10.314;2022-09-09T15:01:40;2.45;;;1.10;;
10542;SDS011;5320;50.046;10.314;2022-09-09T15:04:06;2.47;;;1.08;;
10542;SDS011;5320;50.046;10.314;2022-09-09T15:06:33;1.20;;;0.95;;
10542;SDS011;5320;50.046;10.314;2022-09-09T15:09:02;4.75;;;1.80;;
10542;SDS011;5320;50.046;10.314;2022-09-09T15:11:29;3.47;;;1.55;;
10542;SDS011;5320;50.046;10.314;2022-09-09T15:13:57;3.53;;;1.60;;
10542;SDS011;5320;50.046;10.314;2022-09-09T15:16:24;3.53;;;1.33;;
10542;SDS011;5320;50.046;10.314;2022-09-09T15:18:53;3.80;;;1.20;;
10542;SDS011;5320;50.046;10.314;2022-09-09T15:21:21;2.58;;;1.10;;
10542;SDS011;5320;50.046;10.314;2022-09-09T15:23:48;4.95;;;1.58;;
10542;SDS011;5320;50.046;10.314;2022-09-09T15:26:14;3.20;;;1.20;;
10542;SDS011;5320;50.046;10.314;2022-09-09T15:28:41;3.38;;;1.38;;
10542;SDS011;5320;50.046;10.314;2022-09-09T15:31:12;2.67;;;1.38;;
10542;SDS011;5320;50.046;10.314;2022-09-09T15:33:50;2.85;;;1.50;;
10542;SDS011;5320;50.046;10.314;2022-09-09T15:36:19;4.82;;;1.70;;
10542;SDS011;5320;50.046;10.314;2022-09-09T15:38:47;3.60;;;1.60;;
10542;SDS011;5320;50.046;10.314;2022-09-09T15:41:13;5.63;;;1.80;;
10542;SDS011;5320;50.046;10.314;2022-09-09T15:43:43;5.47;;;2.10;;
10542;SDS011;5320;50.046;10.314;2022-09-09T15:46:32;1.93;;;1.10;;
10542;SDS011;5320;50.046;10.314;2022-09-09T15:49:04;4.43;;;1.57;;
10542;SDS011;5320;50.046;10.314;2022-09-09T15:51:35;2.03;;;1.00;;
10542;SDS011;5320;50.046;10.314;2022-09-09T15:54:05;3.13;;;1.30;;
10542;SDS011;5320;50.046;10.314;2022-09-09T15:56:31;3.37;;;1.10;;
10542;SDS011;5320;50.046;10.314;2022-09-09T15:58:58;1.87;;;1.10;;
10542;SDS011;5320;50.046;10.314;2022-09-09T16:01:26;3.17;;;1.40;;
10542;SDS011;5320;50.046;10.314;2022-09-09T16:03:52;4.03;;;1.30;;
10542;SDS011;5320;50.046;10.314;2022-09-09T16:06:19;2.97;;;1.30;;
10542;SDS011;5320;50.046;10.314;2022-09-09T16:08:47;2.00;;;1.10;;
10542;SDS011;5320;50.046;10.314;2022-09-09T16:11:25;3.77;;;1.13;;
10542;SDS011;5320;50.046;10.314;2022-09-09T16:13:54;3.83;;;1.50;;
10542;SDS011;5320;50.046;10.314;2022-09-09T16:16:22;3.13;;;1.38;;
10542;SDS011;5320;50.046;10.314;2022-09-09T16:18:50;1.85;;;0.82;;
10542;SDS011;5320;50.046;10.314;2022-09-09T16:21:29;1.98;;;1.00;;
10542;SDS011;5320;50.046;10.314;2022-09-09T16:23:57;2.83;;;1.10;;
10542;SDS011;5320;50.046;10.314;2022-09-09T16:26:28;4.22;;;1.30;;
10542;SDS011;5320;50.046;10.314;2022-09-09T16:28:55;1.33;;;1.00;;
10542;SDS011;5320;50.046;10.314;2022-09-09T16:31:23;1.95;;;1.10;;
10542;SDS011;5320;50.046;10.314;2022-09-09T16:33:50;2.35;;;1.00;;
10542;SDS011;5320;50.046;10.314;2022-09-09T16:36:17;1.58;;;0.82;;
10542;SDS011;5320;50.046;10.314;2022-09-09T16:38:47;2.88;;;1.42;;
10542;SDS011;5320;50.046;10.314;2022-09-09T16:41:17;2.42;;;0.90;;
10542;SDS011;5320;50.046;10.314;2022-09-09T16:43:44;1.45;;;1.00;;
10542;SDS011;5320;50.046;10.314;2022-09-09T16:46:11;2.38;;;0.95;;
10542;SDS011;5320;50.046;10.314;2022-09-09T16:48:42;2.72;;;1.25;;
10542;SDS011;5320;50.046;10.314;2022-09-09T16:51:19;2.20;;;1.40;;
10542;SDS011;5320;50.046;10.314;2022-09-09T16:53:48;3.20;;;1.80;;
10542;SDS011;5320;50.046;10.314;2022-09-09T16:56:15;1.92;;;1.30;;
10542;SDS011;5320;50.046;10.314;2022-09-09T16:58:43;2.27;;;1.10;;
10542;SDS011;5320;50.046;10.314;2022-09-09T17:01:15;1.98;;;1.23;;
10542;SDS011;5320;50.046;10.314;2022-09-09T17:03:41;2.33;;;1.33;;
10542;SDS011;5320;50.046;10.314;2022-09-09T17:06:16;1.52;;;1.00;;
10542;SDS011;5320;50.046;10.314;2022-09-09T17:08:41;2.50;;;0.90;;
10542;SDS011;5320;50.046;10.314;2022-09-09T17:11:17;2.15;;;0.93;;
10542;SDS011;5320;50.046;10.314;2022-09-09T17:13:44;2.93;;;1.20;;
10542;SDS011;5320;50.046;10.314;2022-09-09T17:16:12;1.50;;;1.05;;
10542;SDS011;5320;50.046;10.314;2022-09-09T17:18:40;2.83;;;1.05;;
10542;SDS011;5320;50.046;10.314;2022-09-09T17:21:07;1.67;;;1.07;;